Time;durP1;ratioP1;P1;durP2;ratioP2;P2;SDS_P1;SDS_P2;PMS_P1;PMS_P2;Temp;Humidity;BMP_temperature;BMP_pressure;BME280_temperature;BME280_humidity;BME280_pressure;Samples;Min_cycle;Max_cycle;Signal;HPM_P1;HPM_P2
2023/03/12 00:00:10;;;;;;;6.80;4.10;;;;;;;4.76;38.49;99228.16;12782385;23;20929;-45
2023/03/12 00:05:11;;;;;;;7.57;4.87;;;;;;;5.66;37.63;99133.78;12781125;23;20575;-45
2023/03/12 00:10:13;;;;;;;5.93;5.33;;;;;;;4.53;38.64;99250.91;12783834;23;20275;-43
2023/03/12 00:15:15;;;;;;;10.83;4.73;;;;;;;5.92;37.35;99148.66;12776589;23;20735;-45
2023/03/12 00:20:17;;;;;;;7.13;5.30;;;;;;;7.28;36.53;99070.34;12786968;23;20190;-43
2023/03/12 00:25:20;;;;;;;5.53;4.00;;;;;;;8.20;35.06;99157.16;12783304;23;20268;-44
2023/03/12 00:30:21;;;;;;;7.67;5.13;;;;;;;7.94;35.60;99110.50;12784993;23;20184;-47
2023/03/12 00:35:24;;;;;;;6.20;4.40;;;;;;;5.72;36.99;99272.97;12785407;23;20287;-44
2023/03/12 00:40:26;;;;;;;6.33;4.80;;;;;;;6.18;37.47;99153.75;12784873;23;20192;-44
2023/03/12 00:45:28;;;;;;;5.53;4.80;;;;;;;6.29;36.94;99253.53;12781976;23;20216;-45
2023/03/12 00:50:30;;;;;;;5.83;4.30;;;;;;;8.17;35.03;99128.22;12783886;23;20266;-44
2023/03/12 00:55:32;;;;;;;6.67;4.87;;;;;;;6.44;36.30;99222.59;12784326;23;20779;-45
2023/03/12 01:00:34;;;;;;;8.90;5.50;;;;;;;6.91;36.05;99155.25;12785148;23;20259;-45
2023/03/12 01:05:36;;;;;;;5.30;4.60;;;;;;;5.80;37.05;99300.38;12785122;23;20247;-44
2023/03/12 01:10:41;;;;;;;5.87;4.07;;;;;;;5.91;37.16;99245.25;12832775;23;20192;-44
2023/03/12 01:15:43;;;;;;;4.93;4.10;;;;;;;6.67;36.58;99166.84;12783665;23;20354;-44
2023/03/12 01:20:46;;;;;;;4.80;3.90;;;;;;;6.71;36.25;99204.53;12781783;23;20190;-44
2023/03/12 01:25:48;;;;;;;6.53;4.90;;;;;;;8.34;35.02;99107.53;12798278;23;21048;-44
2023/03/12 01:30:50;;;;;;;6.93;4.00;;;;;;;8.14;35.25;99208.56;12783978;23;20191;-44
2023/03/12 01:35:51;;;;;;;6.67;4.30;;;;;;;7.67;35.94;99178.50;12783950;23;20203;-46
2023/03/12 01:40:53;;;;;;;9.40;4.27;;;;;;;7.25;36.09;99276.44;12785070;23;20250;-46
2023/03/12 01:46:20;;;;;;;5.13;4.67;;;;;;;8.77;34.60;99100.41;12783634;23;20212;-48
2023/03/12 01:51:26;;;;;;;6.93;4.30;;;;;;;9.23;34.25;99144.66;12782641;23;20710;-44
2023/03/12 01:56:32;;;;;;;4.77;3.93;;;;;;;9.59;33.43;99165.09;12783677;23;20246;-45
2023/03/12 02:01:34;;;;;;;4.80;3.93;;;;;;;8.73;34.72;99195.19;12783204;23;20739;-44
2023/03/12 02:06:55;;;;;;;6.10;4.50;;;;;;;9.12;34.39;99236.72;12782858;23;20569;-45
2023/03/12 02:11:57;;;;;;;7.43;5.00;;;;;;;7.77;36.23;99232.34;12782964;23;20215;-43
2023/03/12 02:16:59;;;;;;;5.13;4.63;;;;;;;7.99;36.10;99225.34;12782495;23;20607;-44
2023/03/12 02:22:02;;;;;;;8.53;5.10;;;;;;;7.48;36.58;99251.72;12781574;23;20228;-44
2023/03/12 02:27:05;;;;;;;8.37;5.17;;;;;;;6.77;37.20;99196.75;12783444;23;20693;-43
2023/03/12 02:32:11;;;;;;;7.50;4.93;;;;;;;6.25;37.63;99275.13;12782867;23;20306;-43
2023/03/12 02:37:13;;;;;;;5.90;4.97;;;;;;;8.07;35.95;99153.31;12783144;23;20221;-43
2023/03/12 02:42:15;;;;;;;6.37;5.10;;;;;;;8.68;35.28;99152.25;12780195;23;20279;-45
2023/03/12 02:47:17;;;;;;;6.20;5.23;;;;;;;8.16;35.49;99243.84;12782254;23;20230;-43
2023/03/12 02:52:18;;;;;;;5.40;4.90;;;;;;;8.45;35.19;99229.69;12782353;23;20247;-44
2023/03/12 02:57:20;;;;;;;13.57;4.83;;;;;;;9.76;34.45;99101.50;12781575;23;20694;-44
2023/03/12 03:02:23;;;;;;;6.70;4.53;;;;;;;8.86;34.79;99226.56;12782028;23;20684;-43
2023/03/12 03:07:24;;;;;;;6.07;4.63;;;;;;;7.95;35.78;99280.00;12781991;23;20252;-44
2023/03/12 03:12:26;;;;;;;6.90;4.20;;;;;;;8.09;35.76;99217.91;12781750;23;20258;-44
2023/03/12 03:17:28;;;;;;;6.60;4.17;;;;;;;8.65;35.32;99152.63;12781599;23;20229;-44
2023/03/12 03:22:30;;;;;;;5.03;4.37;;;;;;;9.78;34.57;99075.41;12781102;23;20224;-44
2023/03/12 03:27:31;;;;;;;8.13;5.83;;;;;;;9.34;34.65;99154.00;12782364;23;20224;-45
2023/03/12 03:32:33;;;;;;;6.77;6.07;;;;;;;8.33;36.60;99132.53;12780702;23;20563;-44
2023/03/12 03:37:35;;;;;;;7.77;5.80;;;;;;;8.71;36.26;99141.22;12782450;23;20963;-44
2023/03/12 03:42:38;;;;;;;10.87;5.53;;;;;;;8.74;36.05;99138.19;12779662;23;20702;-43
2023/03/12 03:47:40;;;;;;;7.03;5.70;;;;;;;7.65;37.57;99176.00;12784488;23;20227;-44
2023/03/12 03:52:41;;;;;;;6.90;5.73;;;;;;;9.25;36.21;99070.53;12786521;23;20595;-43
2023/03/12 03:57:43;;;;;;;8.83;5.30;;;;;;;9.32;36.04;99079.41;12786522;23;20350;-43
2023/03/12 04:02:45;;;;;;;6.73;5.17;;;;;;;9.40;36.32;99078.47;12771436;23;20326;-44
2023/03/12 04:07:46;;;;;;;5.67;5.07;;;;;;;7.66;38.16;99198.97;12734077;23;20309;-44
2023/03/12 04:12:49;;;;;;;8.97;5.87;;;;;;;10.14;35.75;99077.06;12785965;23;20195;-43
2023/03/12 04:17:51;;;;;;;11.47;7.27;;;;;;;8.06;36.64;99274.22;12786095;23;20548;-44
2023/03/12 04:22:52;;;;;;;6.67;5.30;;;;;;;6.10;40.22;99275.97;12784383;23;20234;-45
2023/03/12 04:27:54;;;;;;;7.83;5.77;;;;;;;4.39;43.23;99327.34;12785910;23;20209;-44
2023/03/12 04:32:56;;;;;;;11.53;9.03;;;;;;;4.48;45.24;99118.91;12786698;23;20188;-43
2023/03/12 04:38:00;;;;;;;12.80;10.23;;;;;;;3.81;44.75;99259.81;12835684;23;20252;-44
2023/03/12 04:43:02;;;;;;;9.83;7.80;;;;;;;3.78;44.97;99201.94;12783808;23;20940;-43
2023/03/12 04:48:05;;;;;;;9.83;5.80;;;;;;;4.29;44.35;99153.53;12785955;23;20208;-43
2023/03/12 04:53:06;;;;;;;6.63;5.33;;;;;;;4.28;43.53;99210.19;12785792;23;20192;-43
2023/03/12 04:58:08;;;;;;;6.80;5.70;;;;;;;5.57;43.19;99012.66;12784562;23;20704;-43
2023/03/12 05:03:11;;;;;;;6.57;5.87;;;;;;;5.68;42.97;99070.72;12785346;23;20950;-44
2023/03/12 05:08:13;;;;;;;7.87;5.43;;;;;;;7.62;40.89;98989.16;12785908;23;20204;-43
2023/03/12 05:13:18;;;;;;;9.97;5.90;;;;;;;6.58;41.05;99112.03;12784707;23;20659;-43
2023/03/12 05:18:20;;;;;;;9.13;6.70;;;;;;;7.98;40.04;98985.72;12755261;23;20197;-43
2023/03/12 05:23:22;;;;;;;9.60;7.63;;;;;;;8.21;38.46;99177.50;12784325;23;20230;-43
2023/03/12 05:28:27;;;;;;;14.07;8.07;;;;;;;7.14;40.40;99141.16;12784964;23;20798;-45
2023/03/12 05:33:29;;;;;;;11.53;8.73;;;;;;;9.10;37.95;99107.16;12782887;23;20224;-44
2023/03/12 05:38:30;;;;;;;8.10;6.97;;;;;;;8.60;38.31;99125.69;12785045;23;20672;-43
2023/03/12 05:43:33;;;;;;;7.33;5.97;;;;;;;7.61;40.22;99088.66;12783066;23;20229;-45
2023/03/12 05:48:34;;;;;;;8.93;6.20;;;;;;;7.59;39.94;99130.63;12783672;23;20708;-64
2023/03/12 05:53:36;;;;;;;5.43;4.90;;;;;;;7.99;40.23;99052.16;12782832;23;20226;-64
2023/03/12 05:58:38;;;;;;;5.70;5.20;;;;;;;8.11;40.51;99050.66;12781562;23;20306;-64
2023/03/12 06:03:41;;;;;;;6.50;5.67;;;;;;;9.31;39.18;98986.97;12782222;23;20216;-64
2023/03/12 06:08:43;;;;;;;5.80;5.20;;;;;;;9.05;39.44;99040.19;12780706;23;20270;-63
2023/03/12 06:13:45;;;;;;;6.77;4.97;;;;;;;9.05;39.55;99046.34;12782897;23;20213;-63
2023/03/12 06:18:47;;;;;;;11.07;6.10;;;;;;;9.07;38.65;99160.91;12782011;23;20227;-65
2023/03/12 06:23:49;;;;;;;7.40;5.43;;;;;;;8.36;39.62;99204.97;12780307;23;20227;-64
2023/03/12 06:28:51;;;;;;;9.03;6.40;;;;;;;9.34;39.23;99037.31;12781722;23;20231;-65
2023/03/12 06:33:53;;;;;;;7.90;6.37;;;;;;;7.86;41.78;99079.44;12781332;23;20729;-63
2023/03/12 06:38:55;;;;;;;9.23;6.37;;;;;;;7.08;41.91;99181.78;12781475;23;20229;-65
2023/03/12 06:43:58;;;;;;;9.60;6.87;;;;;;;10.00;39.25;99065.47;12780746;23;20730;-63
2023/03/12 06:49:00;;;;;;;8.53;6.47;;;;;;;7.70;41.64;99184.28;12781382;23;20220;-65
2023/03/12 06:54:02;;;;;;;10.07;6.30;;;;;;;8.08;41.57;99107.00;12780695;23;20255;-65
2023/03/12 06:59:04;;;;;;;21.73;13.33;;;;;;;10.49;38.39;99053.75;12779356;23;20817;-65
2023/03/12 07:04:06;;;;;;;16.10;10.70;;;;;;;8.94;40.55;99165.06;12781173;23;20216;-65
2023/03/12 07:09:07;;;;;;;11.63;7.63;;;;;;;7.48;41.57;99273.81;12780532;23;20571;-64
2023/03/12 07:14:09;;;;;;;10.20;7.70;;;;;;;9.55;39.66;99148.63;12780478;23;20589;-64
2023/03/12 07:19:11;;;;;;;10.53;8.80;;;;;;;8.03;42.96;99098.75;12781813;23;20219;-65
2023/03/12 07:24:12;;;;;;;9.23;7.63;;;;;;;6.87;44.65;99121.22;12784540;23;20219;-65
2023/03/12 07:29:14;;;;;;;9.63;7.60;;;;;;;6.74;44.77;99135.88;12785222;23;20227;-65
2023/03/12 07:34:16;;;;;;;12.83;9.23;;;;;;;8.03;42.74;99149.38;12783016;23;20224;-65
2023/03/12 07:39:18;;;;;;;13.40;12.00;;;;;;;10.23;40.04;99051.00;12785480;23;20223;-64
2023/03/12 07:44:20;;;;;;;10.63;7.50;;;;;;;10.15;39.74;99102.78;12784362;23;20223;-64
2023/03/12 07:49:21;;;;;;;9.20;8.30;;;;;;;9.94;39.81;99101.03;12783605;23;20701;-65
2023/03/12 07:54:27;;;;;;;8.27;7.37;;;;;;;8.31;41.72;99273.19;12785177;23;20575;-65
2023/03/12 07:59:29;;;;;;;8.87;7.87;;;;;;;9.90;40.82;99081.88;12785091;23;20225;-65
2023/03/12 08:04:30;;;;;;;9.70;7.20;;;;;;;9.98;40.13;99157.59;12784171;23;20292;-65
2023/03/12 08:09:33;;;;;;;10.43;8.93;;;;;;;8.19;42.23;99246.97;12784454;23;20224;-65
2023/03/12 08:14:35;;;;;;;13.33;9.50;;;;;;;8.51;41.64;99252.16;12784355;23;20250;-64
2023/03/12 08:19:37;;;;;;;10.80;9.20;;;;;;;7.21;43.71;99309.75;12784214;23;20216;-65
2023/03/12 08:24:38;;;;;;;11.73;8.50;;;;;;;7.99;43.86;99177.38;12783091;23;20232;-65
2023/03/12 08:29:41;;;;;;;11.37;9.13;;;;;;;6.60;44.91;99266.91;12784251;23;20239;-65
2023/03/12 08:34:42;;;;;;;14.03;9.13;;;;;;;8.83;43.00;99115.69;12782902;23;20795;-63
2023/03/12 08:39:44;;;;;;;19.00;13.20;;;;;;;9.43;41.88;99125.28;12783316;23;20241;-64
2023/03/12 08:44:46;;;;;;;18.93;13.77;;;;;;;10.41;41.08;99078.03;12781894;23;20689;-64
2023/03/12 08:49:47;;;;;;;11.93;10.53;;;;;;;9.57;41.94;99129.75;12783676;23;20306;-65
2023/03/12 08:54:49;;;;;;;11.33;9.40;;;;;;;10.51;39.99;99225.59;12783705;23;20227;-64
2023/03/12 08:59:51;;;;;;;12.67;10.67;;;;;;;10.19;40.79;99194.97;12782993;23;20282;-63
2023/03/12 09:04:52;;;;;;;12.70;10.53;;;;;;;9.70;41.82;99247.41;12783206;23;20708;-64
2023/03/12 09:09:54;;;;;;;11.27;9.13;;;;;;;11.34;39.32;99130.09;12783655;23;20223;-65
2023/03/12 09:14:56;;;;;;;9.47;8.30;;;;;;;10.18;42.01;99216.53;12781613;23;20695;-63
2023/03/12 09:20:08;;;;;;;11.13;8.90;;;;;;;10.80;40.89;99143.41;12783211;23;20217;-66
2023/03/12 09:25:10;;;;;;;12.47;8.97;;;;;;;5.59;49.83;99358.44;12782417;23;20212;-65
2023/03/12 09:30:18;;;;;;;10.97;9.50;;;;;;;8.06;45.08;99324.88;12783094;23;20224;-63
2023/03/12 09:35:19;;;;;;;18.07;15.97;;;;;;;9.37;44.91;99167.78;12782468;23;20228;-65
2023/03/12 09:40:24;;;;;;;16.50;13.37;;;;;;;10.54;42.42;99192.25;12782868;23;20725;-65
2023/03/12 09:45:29;;;;;;;11.30;10.10;;;;;;;9.68;43.97;99244.06;12780500;23;20223;-65
2023/03/12 09:50:39;;;;;;;12.50;11.07;;;;;;;9.01;44.92;99277.25;12780565;23;20227;-65
2023/03/12 09:55:44;;;;;;;14.40;10.50;;;;;;;10.04;44.08;99221.78;12780956;23;20220;-64
2023/03/12 10:00:45;;;;;;;12.87;11.47;;;;;;;8.99;46.10;99312.16;12781978;23;20610;-64
2023/03/12 10:06:08;;;;;;;10.83;9.73;;;;;;;10.59;44.38;99203.19;12781368;23;20221;-65
2023/03/12 10:11:42;;;;;;;11.37;9.93;;;;;;;10.15;45.19;99266.69;12770927;23;20236;-64
2023/03/12 10:16:58;;;;;;;11.87;10.70;;;;;;;11.20;44.28;99166.75;12781249;23;20217;-65
2023/03/12 10:22:04;;;;;;;12.37;10.80;;;;;;;11.04;45.48;99184.84;12781163;23;20713;-65
2023/03/12 10:27:14;;;;;;;11.13;9.87;;;;;;;10.86;46.75;99168.53;12779209;23;20216;-65
2023/03/12 10:32:39;;;;;;;10.70;9.60;;;;;;;11.90;45.36;99104.75;12782087;23;20235;-65
2023/03/12 10:38:02;;;;;;;13.87;9.77;;;;;;;11.49;45.64;99197.72;12780928;23;20225;-65
2023/03/12 10:43:05;;;;;;;10.87;9.77;;;;;;;11.75;46.80;99202.28;12780199;23;20216;-65
2023/03/12 10:48:11;;;;;;;10.20;8.27;;;;;;;11.44;47.29;99192.97;12779568;23;20970;-65
2023/03/12 10:53:21;;;;;;;11.00;9.90;;;;;;;12.53;45.62;99161.28;12780817;23;20254;-65
2023/03/12 10:58:24;;;;;;;11.67;10.47;;;;;;;12.43;46.31;99139.44;12777480;23;20571;-65
2023/03/12 11:06:32;;;;;;;15.03;10.53;;;;;;;7.58;56.75;99164.44;10470432;28;20889;-64
2023/03/12 11:11:35;;;;;;;15.40;10.10;;;;;;;7.88;56.29;99186.66;10411559;28;20614;-66
2023/03/12 11:16:37;;;;;;;14.37;9.90;;;;;;;8.67;55.73;99107.91;10431171;28;20229;-66
2023/03/12 11:21:39;;;;;;;10.80;8.40;;;;;;;8.80;55.47;99141.91;10412938;28;20623;-66
2023/03/12 11:26:50;;;;;;;15.80;10.60;;;;;;;9.65;54.73;99134.09;10425923;28;20256;-66
2023/03/12 11:32:28;;;;;;;13.13;9.33;;;;;;;9.48;56.33;99128.22;10419243;28;21010;-66
2023/03/12 11:37:54;;;;;;;10.60;8.90;;;;;;;10.35;55.70;99190.31;10429701;28;20678;-65
2023/03/12 11:43:15;;;;;;;10.73;8.13;;;;;;;10.20;53.91;99238.56;10417027;28;20244;-65
2023/03/12 11:48:35;;;;;;;16.53;10.97;;;;;;;10.42;55.74;99220.59;10421797;28;20847;-67
2023/03/12 11:53:52;;;;;;;11.03;7.43;;;;;;;9.94;56.69;99286.28;10425170;28;20684;-67
2023/03/12 11:59:33;;;;;;;10.17;6.70;;;;;;;10.82;57.44;99172.66;10413191;28;20236;-65
2023/03/12 12:04:49;;;;;;;15.13;7.53;;;;;;;11.12;56.14;99191.03;10425222;28;20319;-65
2023/03/12 12:10:14;;;;;;;8.40;6.27;;;;;;;11.15;55.43;99174.56;10428557;28;20243;-66
2023/03/12 12:16:07;;;;;;;12.37;5.70;;;;;;;12.09;55.53;99111.91;10408834;28;20243;-63
2023/03/12 12:21:08;;;;;;;11.83;6.43;;;;;;;11.28;55.14;99213.97;10380897;28;20225;-66
2023/03/12 12:26:22;;;;;;;11.73;6.40;;;;;;;11.91;54.68;99206.41;10387078;28;20233;-64
2023/03/12 12:31:33;;;;;;;9.07;5.10;;;;;;;11.90;55.39;99242.28;10393231;28;20209;-64
2023/03/12 12:36:35;;;;;;;9.30;5.37;;;;;;;12.84;52.03;99205.38;10387423;28;20233;-64
2023/03/12 12:41:52;;;;;;;8.90;4.80;;;;;;;11.68;53.12;99264.97;10402719;28;20317;-65
2023/03/12 12:47:04;;;;;;;9.03;4.57;;;;;;;13.22;50.68;99172.31;10395474;28;20603;-64
2023/03/12 12:52:10;;;;;;;13.20;5.43;;;;;;;11.71;52.96;99305.59;10389875;28;20232;-66
2023/03/12 12:57:19;;;;;;;13.00;5.10;;;;;;;11.28;54.75;99326.44;10389727;28;20231;-63
2023/03/12 13:02:28;;;;;;;11.63;5.20;;;;;;;12.69;51.96;99234.34;10385791;28;20241;-64
2023/03/12 13:07:32;;;;;;;9.67;4.70;;;;;;;11.52;52.96;99319.72;10392057;28;20236;-65
2023/03/12 13:12:54;;;;;;;15.00;5.07;;;;;;;14.12;49.88;99183.81;10390327;28;20605;-65
2023/03/12 13:18:26;;;;;;;10.83;4.73;;;;;;;12.91;52.12;99257.19;10393202;28;20232;-63
2023/03/12 13:23:38;;;;;;;12.30;5.67;;;;;;;13.96;50.09;99202.16;10389983;28;20623;-66
2023/03/12 13:28:51;;;;;;;10.37;4.60;;;;;;;13.42;50.93;99230.50;10394128;28;20233;-61
2023/03/12 13:34:18;;;;;;;14.57;5.80;;;;;;;14.64;48.54;99211.19;10398846;28;20239;-62
2023/03/12 13:39:30;;;;;;;11.33;4.70;;;;;;;14.78;47.21;99219.97;10400902;28;20342;-64
2023/03/12 13:44:35;;;;;;;11.17;4.70;;;;;;;14.76;46.94;99230.13;10388198;28;20315;-65
2023/03/12 13:49:44;;;;;;;9.67;3.83;;;;;;;15.32;45.95;99204.75;10396212;28;20730;-62
2023/03/12 13:54:56;;;;;;;11.73;4.63;;;;;;;14.09;47.95;99278.44;10404311;28;20723;-65
2023/03/12 13:59:58;;;;;;;9.43;4.17;;;;;;;13.89;48.11;99290.16;10393121;28;21147;-65
2023/03/12 14:05:06;;;;;;;15.43;4.77;;;;;;;14.06;47.08;99268.09;10393764;28;20245;-63
2023/03/12 14:10:18;;;;;;;11.60;4.33;;;;;;;14.91;46.06;99235.16;10387980;28;20256;-64
2023/03/12 14:15:25;;;;;;;15.80;4.77;;;;;;;13.99;46.55;99266.28;10396171;28;20243;-63
2023/03/12 14:20:28;;;;;;;16.27;4.90;;;;;;;13.63;46.58;99294.69;10390158;28;20714;-64
2023/03/12 14:25:37;;;;;;;10.27;4.53;;;;;;;15.24;45.23;99242.00;10390556;28;20987;-62
2023/03/12 14:31:03;;;;;;;9.30;3.63;;;;;;;13.89;46.28;99316.22;10390502;28;20232;-60
2023/03/12 14:36:15;;;;;;;11.33;4.63;;;;;;;13.97;46.24;99319.47;10391176;28;20223;-63
2023/03/12 14:41:26;;;;;;;10.03;4.73;;;;;;;14.14;45.76;99284.00;10357351;28;20237;-63
2023/03/12 14:46:28;;;;;;;13.70;5.57;;;;;;;14.28;45.65;99285.50;10342132;28;20624;-61
2023/03/12 14:51:34;;;;;;;12.90;5.10;;;;;;;15.10;43.82;99242.19;10354054;28;20249;-63
2023/03/12 14:56:42;;;;;;;8.97;4.83;;;;;;;15.76;43.06;99244.13;10350837;28;20236;-63
2023/03/12 15:01:45;;;;;;;13.60;5.30;;;;;;;15.79;42.87;99247.22;10357167;28;20344;-62
2023/03/12 15:06:53;;;;;;;10.83;5.20;;;;;;;15.70;42.80;99238.63;10348755;28;20246;-62
2023/03/12 15:11:59;;;;;;;8.93;4.67;;;;;;;15.31;43.30;99265.09;10350863;28;20627;-61
2023/03/12 15:17:03;;;;;;;12.80;4.63;;;;;;;14.97;42.93;99282.75;10355220;28;20232;-63
2023/03/12 15:22:11;;;;;;;10.77;4.20;;;;;;;14.79;42.88;99275.47;10349694;28;20620;-61
2023/03/12 15:27:29;;;;;;;10.30;4.07;;;;;;;14.19;42.99;99303.81;10393740;28;20564;-62
2023/03/12 15:32:30;;;;;;;9.70;4.37;;;;;;;14.79;43.64;99275.47;10393078;28;20239;-62
2023/03/12 15:37:39;;;;;;;12.43;4.30;;;;;;;14.42;43.56;99290.78;10406698;28;20236;-63
2023/03/12 15:42:45;;;;;;;8.77;4.33;;;;;;;14.04;43.67;99295.22;10388381;28;20343;-63
2023/03/12 15:47:48;;;;;;;14.07;5.23;;;;;;;15.07;43.26;99242.63;10395756;28;20628;-60
2023/03/12 15:53:03;;;;;;;14.20;4.93;;;;;;;14.40;43.46;99278.34;10394724;28;20716;-64
2023/03/12 15:58:25;;;;;;;16.13;5.10;;;;;;;14.89;43.28;99274.97;10397884;28;20227;-64
2023/03/12 16:03:26;;;;;;;13.00;4.67;;;;;;;14.68;42.91;99268.16;10401656;28;20240;-63
2023/03/12 16:08:36;;;;;;;8.67;4.13;;;;;;;14.54;42.95;99264.75;10406063;28;20235;-64
2023/03/12 16:13:40;;;;;;;11.20;4.47;;;;;;;13.85;43.91;99323.88;10399208;28;20229;-63
2023/03/12 16:18:42;;;;;;;10.67;4.43;;;;;;;13.76;43.17;99295.63;10405980;28;20236;-64
2023/03/12 16:23:44;;;;;;;10.83;4.73;;;;;;;15.05;41.95;99223.16;10405556;28;20237;-63
2023/03/12 16:28:47;;;;;;;11.57;4.90;;;;;;;15.58;41.56;99223.50;10389850;28;20240;-63
2023/03/12 16:33:48;;;;;;;8.77;4.07;;;;;;;15.81;41.32;99201.13;10396714;28;20288;-63
2023/03/12 16:38:50;;;;;;;8.57;3.97;;;;;;;16.42;40.54;99193.63;10400059;28;20241;-63
2023/03/12 16:43:52;;;;;;;11.67;4.87;;;;;;;15.14;40.93;99219.09;10393168;28;20789;-63
2023/03/12 16:48:54;;;;;;;12.57;5.13;;;;;;;15.93;40.78;99198.44;10401528;28;20615;-62
2023/03/12 16:53:58;;;;;;;14.47;4.90;;;;;;;16.41;40.10;99179.28;10406286;28;20234;-64
2023/03/12 16:59:26;;;;;;;13.90;4.23;;;;;;;16.36;40.48;99197.25;10400579;28;20652;-64
2023/03/12 17:04:27;;;;;;;14.30;3.97;;;;;;;16.05;40.77;99218.16;10407359;28;20232;-63
2023/03/12 17:09:29;;;;;;;11.07;4.20;;;;;;;16.09;41.23;99216.59;10404273;28;20252;-62
2023/03/12 17:14:32;;;;;;;9.17;4.10;;;;;;;16.70;39.71;99202.81;10393655;28;20235;-63
2023/03/12 17:19:33;;;;;;;11.43;4.47;;;;;;;15.65;41.70;99235.78;10403894;28;20592;-64
2023/03/12 17:24:35;;;;;;;8.67;4.20;;;;;;;15.64;41.33;99222.53;10396255;28;20305;-63
2023/03/12 17:29:36;;;;;;;10.20;4.20;;;;;;;16.74;40.15;99198.59;10393098;28;20609;-62
2023/03/12 17:34:38;;;;;;;10.37;4.50;;;;;;;15.56;40.82;99237.19;10402240;28;20224;-62
2023/03/12 17:39:40;;;;;;;11.23;3.97;;;;;;;15.96;40.26;99204.19;10400058;28;20299;-63
2023/03/12 17:44:41;;;;;;;9.57;4.20;;;;;;;16.42;39.77;99182.81;10393701;28;20299;-64
2023/03/12 17:49:43;;;;;;;15.30;5.47;;;;;;;16.29;40.36;99200.09;10397430;28;20225;-64
2023/03/12 17:54:45;;;;;;;7.87;3.63;;;;;;;15.73;41.23;99214.97;10398666;28;20287;-62
2023/03/12 17:59:46;;;;;;;13.17;4.10;;;;;;;15.43;40.81;99246.25;10399912;28;20245;-64
2023/03/12 18:04:48;;;;;;;10.30;3.93;;;;;;;15.70;40.67;99244.00;10401520;28;20375;-64
2023/03/12 18:09:50;;;;;;;8.17;3.50;;;;;;;15.61;40.73;99255.41;10398448;28;20244;-63
2023/03/12 18:14:52;;;;;;;9.03;4.20;;;;;;;15.25;40.42;99287.59;10396485;28;20861;-63
2023/03/12 18:19:54;;;;;;;10.37;3.93;;;;;;;15.58;40.55;99272.03;10398782;28;20241;-63
2023/03/12 18:24:56;;;;;;;8.47;4.20;;;;;;;15.81;40.28;99230.81;10392425;28;20723;-64
2023/03/12 18:29:57;;;;;;;10.47;3.97;;;;;;;15.39;40.62;99261.28;10391378;28;20279;-63
2023/03/12 18:34:59;;;;;;;11.63;4.80;;;;;;;16.36;39.57;99205.34;10407633;28;20232;-63
2023/03/12 18:40:01;;;;;;;10.83;4.90;;;;;;;15.56;40.08;99247.16;10389482;28;20286;-63
2023/03/12 18:45:03;;;;;;;10.53;3.90;;;;;;;14.02;41.78;99281.97;10386958;28;20234;-61
2023/03/12 18:50:06;;;;;;;9.57;4.13;;;;;;;15.28;40.99;99251.25;10393021;28;20735;-63
2023/03/12 18:55:13;;;;;;;8.03;4.17;;;;;;;15.74;40.40;99214.72;10388522;28;20244;-64
2023/03/12 19:00:16;;;;;;;11.60;4.07;;;;;;;15.57;40.58;99235.31;10392185;28;20259;-64
2023/03/12 19:05:18;;;;;;;9.63;4.17;;;;;;;15.53;40.52;99269.97;10389847;28;20247;-64
2023/03/12 19:10:20;;;;;;;12.27;4.10;;;;;;;15.47;40.42;99254.72;10399037;28;20235;-64
2023/03/12 19:15:25;;;;;;;9.33;3.47;;;;;;;14.81;41.52;99294.91;10394338;28;20773;-64
2023/03/12 19:20:27;;;;;;;9.90;3.80;;;;;;;15.17;41.04;99295.97;10394512;28;20646;-64
2023/03/12 19:25:28;;;;;;;13.73;4.33;;;;;;;15.56;40.87;99257.97;10398306;28;20228;-62
2023/03/12 19:30:32;;;;;;;9.53;4.47;;;;;;;14.50;41.71;99294.00;10406508;28;20261;-65
2023/03/12 19:35:40;;;;;;;11.77;5.33;;;;;;;15.50;40.64;99251.56;10412938;28;20851;-66
2023/03/12 19:40:50;;;;;;;12.80;3.63;;;;;;;14.45;41.86;99293.03;10409271;28;20665;-63
2023/03/12 19:45:55;;;;;;;11.17;4.20;;;;;;;14.72;41.21;99288.19;10404188;28;20228;-63
2023/03/12 19:51:04;;;;;;;10.57;3.80;;;;;;;15.38;41.13;99238.03;10393645;28;20225;-66
2023/03/12 19:56:06;;;;;;;10.27;4.37;;;;;;;15.93;40.24;99220.03;9496942;28;10000679;-65
2023/03/12 20:01:07;;;;;;;9.27;4.30;;;;;;;15.88;40.23;99231.50;10437500;28;20231;-63
2023/03/12 20:06:10;;;;;;;10.27;3.80;;;;;;;15.66;40.31;99247.44;10431449;28;20382;-65
2023/03/12 20:11:12;;;;;;;11.93;4.03;;;;;;;15.94;39.61;99213.56;10423291;28;20234;-66
2023/03/12 20:16:13;;;;;;;8.77;3.67;;;;;;;14.99;41.41;99285.22;10433882;28;20650;-66
2023/03/12 20:21:15;;;;;;;10.23;3.60;;;;;;;14.95;41.79;99257.91;10436258;28;20247;-65
2023/03/12 20:26:17;;;;;;;11.00;4.17;;;;;;;15.39;41.00;99214.63;10435989;28;20666;-67
2023/03/12 20:31:19;;;;;;;8.93;3.90;;;;;;;14.61;41.78;99273.59;10443331;28;20216;-65
2023/03/12 20:36:20;;;;;;;11.07;4.27;;;;;;;15.24;40.64;99242.00;10436108;28;20221;-66
2023/03/12 20:41:22;;;;;;;10.30;4.43;;;;;;;14.95;41.38;99241.75;10431347;28;20633;-66
2023/03/12 20:46:24;;;;;;;11.03;3.40;;;;;;;15.17;40.56;99246.63;10432830;28;20623;-68
2023/03/12 20:51:26;;;;;;;8.00;3.97;;;;;;;15.55;40.31;99213.16;10428089;28;20312;-66
2023/03/12 20:56:27;;;;;;;9.30;4.03;;;;;;;14.29;41.31;99254.88;10438512;28;20745;-65
2023/03/12 21:01:29;;;;;;;8.33;3.57;;;;;;;15.05;40.55;99223.16;10437988;28;20859;-66
2023/03/12 21:06:31;;;;;;;8.80;3.50;;;;;;;14.61;40.93;99244.00;10429949;28;20243;-67
2023/03/12 21:11:33;;;;;;;8.70;3.20;;;;;;;14.94;40.92;99242.78;10434098;28;20235;-67
2023/03/12 21:16:35;;;;;;;10.30;3.60;;;;;;;15.00;40.95;99211.41;10428396;28;20255;-67
2023/03/12 21:21:37;;;;;;;7.50;3.87;;;;;;;15.29;39.74;99202.50;10428263;28;20236;-67
2023/03/12 21:26:38;;;;;;;8.60;3.80;;;;;;;15.33;39.96;99187.53;10443681;28;20272;-68
2023/03/12 21:31:40;;;;;;;10.30;4.13;;;;;;;14.86;39.96;99213.47;10434759;28;20227;-67
2023/03/12 21:36:42;;;;;;;10.33;4.30;;;;;;;13.67;42.77;99241.31;10431624;28;20234;-68
2023/03/12 21:41:43;;;;;;;10.50;4.03;;;;;;;15.27;40.85;99137.25;10428081;28;20473;-67
2023/03/12 21:46:45;;;;;;;7.63;3.93;;;;;;;14.27;41.62;99224.66;10425015;28;20281;-67
2023/03/12 21:51:47;;;;;;;10.53;4.07;;;;;;;14.72;41.38;99175.09;10426759;28;20236;-65
2023/03/12 21:56:48;;;;;;;9.93;3.97;;;;;;;15.73;39.79;99117.84;10426762;28;20231;-66
2023/03/12 22:01:50;;;;;;;9.73;3.30;;;;;;;13.18;42.51;99224.03;10417974;28;20238;-65
2023/03/12 22:06:52;;;;;;;10.93;4.00;;;;;;;13.41;42.61;99188.53;10428681;28;20270;-65
2023/03/12 22:11:54;;;;;;;6.63;3.20;;;;;;;13.84;42.25;99207.44;10426177;28;20237;-66
2023/03/12 22:16:55;;;;;;;9.53;3.23;;;;;;;14.87;40.41;99145.91;10425793;28;20338;-65
2023/03/12 22:21:57;;;;;;;15.30;4.57;;;;;;;13.49;42.16;99193.66;10419263;28;21087;-65
2023/03/12 22:27:00;;;;;;;10.83;3.63;;;;;;;14.59;41.89;99124.91;10427625;28;20361;-65
2023/03/12 22:32:02;;;;;;;12.93;4.10;;;;;;;14.32;41.86;99162.09;10430922;28;20315;-66
2023/03/12 22:37:04;;;;;;;9.57;3.40;;;;;;;14.98;40.67;99154.25;10434740;28;20235;-66
2023/03/12 22:42:05;;;;;;;10.30;3.80;;;;;;;15.04;40.89;99143.38;10416833;28;20663;-65
2023/03/12 22:47:07;;;;;;;9.40;3.20;;;;;;;14.82;40.72;99151.16;10427833;28;20250;-65
2023/03/12 22:52:09;;;;;;;10.50;3.90;;;;;;;15.07;40.27;99156.41;10431426;28;20232;-65
2023/03/12 22:57:10;;;;;;;10.40;3.63;;;;;;;14.67;41.16;99161.47;10420232;28;20235;-65
2023/03/12 23:02:12;;;;;;;11.13;4.50;;;;;;;16.01;39.92;99076.63;10424440;28;20243;-66
2023/03/12 23:07:14;;;;;;;7.33;3.60;;;;;;;14.01;42.27;99170.03;10425893;28;20622;-65
2023/03/12 23:12:18;;;;;;;7.87;2.70;;;;;;;13.71;43.01;99177.97;10428413;28;20238;-65
2023/03/12 23:17:20;;;;;;;7.43;3.63;;;;;;;15.14;41.86;99053.91;10371511;22;20240;-36
2023/03/12 23:22:21;;;;;;;11.57;4.13;;;;;;;13.20;43.67;99144.84;10343624;28;20241;-37
2023/03/12 23:27:23;;;;;;;11.03;3.93;;;;;;;14.69;41.07;99125.19;10351457;28;21228;-37
2023/03/12 23:32:25;;;;;;;13.03;4.10;;;;;;;14.67;42.00;99091.47;10345786;28;20271;-36
2023/03/12 23:37:27;;;;;;;8.00;3.87;;;;;;;13.98;42.63;99150.84;10348780;28;20244;-36